ADDS METAR Data

Data at: 0530 UTC 19 Jan 2018

METAR for:KCON (Concord Muni, NH, US)
Text:KCON 190451Z AUTO 00000KT 7SM CLR M12/M14 A2991 RMK AO2 SLP133 T11221139 410221133
Temperature:-12.2°C ( 10°F)
Dewpoint:-13.9°C ( 7°F) [RH = 87%]
Pressure (altimeter):29.91 inches Hg (1013.0 mb) [Sea level pressure: 1013.3 mb]
Winds:calm
Visibility: 7 sm ( 11 km)
Ceiling:at least 12,000 feet AGL
Clouds:sky clear below 12,000 feet AGL
QC Flag:automated observation with no human augmentation